Time;durP1;ratioP1;P1;durP2;ratioP2;P2;SDS_P1;SDS_P2;PMS_P1;PMS_P2;Temp;Humidity;BMP_temperature;BMP_pressure;BME280_temperature;BME280_humidity;BME280_pressure;Samples;Min_cycle;Max_cycle;Signal;HPM_P1;HPM_P2
2022/05/18 00:00:05;;;;;;;7.63;3.60;;;;;;;19.90;56.69;101016.91;4140501;28;20109;-64
2022/05/18 00:02:12;;;;;;;7.93;3.13;;;;;;;19.80;56.80;101011.78;4150464;28;20395;-64
2022/05/18 00:04:15;;;;;;;9.73;3.25;;;;;;;19.81;57.01;101026.69;4145237;28;20053;-64
2022/05/18 00:06:18;;;;;;;7.32;2.97;;;;;;;19.80;57.31;101022.34;4149903;28;20124;-64
2022/05/18 00:08:20;;;;;;;6.63;2.83;;;;;;;19.84;57.54;101025.78;4143986;28;20041;-64
2022/05/18 00:10:23;;;;;;;8.32;3.78;;;;;;;19.82;57.88;101022.31;4150499;28;20450;-64
2022/05/18 00:12:28;;;;;;;8.35;3.20;;;;;;;19.84;57.50;101023.16;4144301;28;20042;-65
2022/05/18 00:14:30;;;;;;;6.53;3.22;;;;;;;19.79;58.00;101022.38;4138993;28;20042;-65
2022/05/18 00:16:33;;;;;;;11.52;3.95;;;;;;;19.77;57.68;101022.34;4146140;28;20513;-65
2022/05/18 00:18:36;;;;;;;12.23;3.90;;;;;;;19.76;58.03;101025.03;4144619;28;20073;-65
2022/05/18 00:20:39;;;;;;;7.93;3.08;;;;;;;19.75;57.84;101016.22;4144341;28;20145;-65
2022/05/18 00:22:47;;;;;;;8.27;3.10;;;;;;;19.74;58.07;101022.38;4146800;28;20495;-65
2022/05/18 00:24:50;;;;;;;7.90;3.15;;;;;;;19.68;58.26;101017.19;4140747;28;20137;-65
2022/05/18 00:26:56;;;;;;;8.38;3.90;;;;;;;19.69;58.31;101018.94;4145669;28;20514;-65
2022/05/18 00:29:01;;;;;;;5.70;3.10;;;;;;;19.69;58.60;101029.50;4143862;28;20038;-65
2022/05/18 00:31:04;;;;;;;6.65;3.83;;;;;;;19.65;58.90;101022.53;4152530;28;20124;-65
2022/05/18 00:33:08;;;;;;;8.13;3.67;;;;;;;19.59;58.92;101019.97;4141310;28;20046;-65
2022/05/18 00:35:13;;;;;;;11.65;3.45;;;;;;;19.51;59.15;101026.22;4146141;28;20529;-65
2022/05/18 00:37:16;;;;;;;9.95;4.25;;;;;;;19.48;59.05;101023.63;4139695;28;20129;-65
2022/05/18 00:39:20;;;;;;;11.50;3.60;;;;;;;19.43;59.11;101028.09;4147428;28;20042;-65
2022/05/18 00:41:23;;;;;;;7.63;3.63;;;;;;;19.42;58.98;101025.47;4147235;28;20133;-65
2022/05/18 00:43:39;;;;;;;11.07;3.75;;;;;;;19.48;59.01;101038.59;4145784;28;20049;-65
2022/05/18 00:45:43;;;;;;;7.35;3.70;;;;;;;19.48;59.45;101028.91;4137752;28;20034;-65
2022/05/18 00:47:46;;;;;;;;;;;;;;;19.31;59.32;101033.53;4148224;28;20042;-65
2022/05/18 00:49:54;;;;;;;7.05;3.78;;;;;;;19.42;59.19;101031.63;4145082;28;20405;-65
2022/05/18 00:51:58;;;;;;;5.78;3.33;;;;;;;19.43;59.32;101025.44;4145758;28;20297;-65
2022/05/18 00:54:07;;;;;;;6.70;3.67;;;;;;;19.41;59.67;101029.88;4151735;28;20440;-65
2022/05/18 00:56:14;;;;;;;9.77;3.50;;;;;;;19.39;60.21;101025.53;4143926;28;20101;-65
2022/05/18 00:58:19;;;;;;;6.68;3.50;;;;;;;19.36;59.63;101021.16;4140290;28;20048;-65
2022/05/18 01:00:23;;;;;;;5.72;2.83;;;;;;;19.35;59.78;101024.69;4148176;28;20046;-65
2022/05/18 01:02:31;;;;;;;7.95;3.22;;;;;;;19.32;59.91;101020.34;4144585;28;20411;-65
2022/05/18 01:04:34;;;;;;;7.53;3.78;;;;;;;19.29;60.13;101016.84;4147473;28;20045;-64
2022/05/18 01:06:43;;;;;;;8.63;3.63;;;;;;;19.27;59.92;101010.75;4155157;28;20495;-64
2022/05/18 01:08:51;;;;;;;6.43;3.22;;;;;;;19.17;60.21;101005.59;4149346;28;20097;-64
2022/05/18 01:10:54;;;;;;;9.88;3.85;;;;;;;19.11;60.60;101010.91;4139673;28;20062;-64
2022/05/18 01:12:57;;;;;;;9.20;4.13;;;;;;;19.09;60.41;101009.22;4157852;28;20046;-64
2022/05/18 01:15:05;;;;;;;7.37;2.97;;;;;;;19.05;60.78;101011.00;4153729;28;20046;-64
2022/05/18 01:17:09;;;;;;;6.88;3.63;;;;;;;19.04;60.56;101014.53;4148063;28;20392;-64
2022/05/18 01:19:20;;;;;;;10.60;4.00;;;;;;;19.02;60.30;101017.16;4134870;28;20042;-64
2022/05/18 01:21:26;;;;;;;8.55;3.83;;;;;;;19.03;60.50;101012.78;4144755;28;20041;-64
2022/05/18 01:23:41;;;;;;;7.07;3.55;;;;;;;19.05;60.70;101016.28;4141776;28;20045;-64
2022/05/18 01:26:12;;;;;;;10.38;3.90;;;;;;;19.05;60.76;101012.78;4146224;28;20402;-64
2022/05/18 01:28:16;;;;;;;5.25;3.45;;;;;;;19.06;60.92;101014.53;4144282;28;20191;-64
2022/05/18 01:30:19;;;;;;;;;;;;;;;18.82;61.14;101012.13;4143378;28;20038;-64
2022/05/18 01:32:22;;;;;;;10.20;3.33;;;;;;;18.94;61.49;101010.25;4148158;28;19928;-65
2022/05/18 01:34:27;;;;;;;7.35;3.20;;;;;;;18.96;61.34;101013.75;4151221;28;20537;-65
2022/05/18 01:36:30;;;;;;;7.07;3.97;;;;;;;18.96;61.22;101017.25;4151851;28;20045;-65
2022/05/18 01:38:33;;;;;;;7.15;3.33;;;;;;;18.94;61.03;101023.41;4152169;28;20056;-65
2022/05/18 01:40:45;;;;;;;9.70;3.70;;;;;;;18.96;60.92;101026.94;4150541;28;20041;-65
2022/05/18 01:42:53;;;;;;;8.18;3.58;;;;;;;18.94;61.22;101028.69;4146614;28;20041;-65
2022/05/18 01:44:58;;;;;;;9.30;3.72;;;;;;;18.88;61.36;101027.03;4151382;28;20034;-65
2022/05/18 01:47:00;;;;;;;7.43;3.92;;;;;;;18.84;61.55;101023.50;4149873;28;20466;-65
2022/05/18 01:49:04;;;;;;;4.80;3.30;;;;;;;18.88;61.12;101029.66;4146633;28;20054;-65
2022/05/18 01:51:10;;;;;;;7.95;3.42;;;;;;;18.86;61.29;101027.88;4149852;28;20221;-64
2022/05/18 01:53:12;;;;;;;5.05;3.08;;;;;;;18.84;61.40;101031.41;4149461;28;20050;-64
2022/05/18 01:55:17;;;;;;;4.82;2.90;;;;;;;18.82;61.58;101033.19;4146180;28;20037;-64
2022/05/18 01:57:20;;;;;;;8.40;3.72;;;;;;;18.78;61.51;101044.66;4141550;28;20046;-64
2022/05/18 01:59:23;;;;;;;6.15;3.42;;;;;;;18.76;61.86;101042.91;4156138;28;20494;-64
2022/05/18 02:01:28;;;;;;;7.68;3.38;;;;;;;18.63;62.25;101045.69;4142259;28;20045;-64
2022/05/18 02:03:31;;;;;;;;;;;;;;;18.37;63.00;101043.28;4144136;28;20034;-64
2022/05/18 02:05:34;;;;;;;8.77;3.40;;;;;;;18.37;63.56;101047.66;4139080;28;19970;-65
2022/05/18 02:07:37;;;;;;;9.63;3.33;;;;;;;18.41;63.42;101049.38;4142832;28;20133;-65
2022/05/18 02:09:40;;;;;;;8.15;3.65;;;;;;;18.44;63.02;101049.34;4152615;28;20050;-64
2022/05/18 02:11:44;;;;;;;7.50;4.18;;;;;;;18.51;62.36;101053.69;4154281;28;20042;-65
2022/05/18 02:13:47;;;;;;;9.38;3.90;;;;;;;18.61;61.85;101046.56;4140294;28;20108;-65
2022/05/18 02:15:50;;;;;;;7.80;3.77;;;;;;;18.65;61.75;101043.03;4140968;28;20034;-65
2022/05/18 02:17:54;;;;;;;7.43;3.92;;;;;;;18.72;61.11;101043.81;4148583;28;20041;-65
2022/05/18 02:19:58;;;;;;;10.48;3.85;;;;;;;18.71;60.95;101047.38;4145843;28;20089;-65
2022/05/18 02:22:00;;;;;;;8.77;3.88;;;;;;;18.73;61.04;101048.22;4146044;28;20463;-65
2022/05/18 02:24:04;;;;;;;6.30;3.75;;;;;;;18.61;61.15;101042.16;4155013;28;20124;-65
2022/05/18 02:26:07;;;;;;;7.40;3.80;;;;;;;18.49;61.38;101044.94;4156779;28;20041;-65
2022/05/18 02:28:10;;;;;;;8.33;3.30;;;;;;;18.50;61.24;101041.44;4148960;28;20163;-65
2022/05/18 02:30:15;;;;;;;8.02;3.83;;;;;;;18.56;61.34;101036.09;4143262;28;20307;-65
2022/05/18 02:32:18;;;;;;;6.72;3.22;;;;;;;18.59;61.30;101043.97;4148886;28;20049;-64
2022/05/18 02:34:22;;;;;;;8.02;3.65;;;;;;;18.55;61.49;101039.59;4139894;28;20050;-64
2022/05/18 02:36:26;;;;;;;6.32;3.17;;;;;;;18.55;61.62;101036.13;4138676;28;20114;-65
2022/05/18 02:38:29;;;;;;;8.70;3.53;;;;;;;18.51;61.73;101047.56;4142610;28;20045;-65
2022/05/18 02:40:32;;;;;;;7.03;3.22;;;;;;;18.44;61.91;101050.25;4154966;28;20042;-65
2022/05/18 02:42:35;;;;;;;10.52;4.10;;;;;;;18.40;61.89;101040.63;4159101;28;20045;-65
2022/05/18 02:44:39;;;;;;;6.97;3.55;;;;;;;18.32;62.49;101045.06;4153192;28;20065;-65
2022/05/18 02:46:42;;;;;;;6.75;3.58;;;;;;;18.33;62.26;101046.81;4150319;28;20042;-65
2022/05/18 02:48:45;;;;;;;7.70;3.55;;;;;;;18.31;62.31;101053.84;4139848;28;20088;-65
2022/05/18 02:50:49;;;;;;;4.85;3.40;;;;;;;18.29;62.37;101050.38;4128864;28;20049;-65
2022/05/18 02:52:51;;;;;;;5.82;3.33;;;;;;;18.23;62.66;101042.53;4147280;28;20583;-65
2022/05/18 02:57:19;;;;;;;8.07;3.58;;;;;;;18.20;62.93;101050.44;4155688;28;20385;-65
2022/05/18 02:59:22;;;;;;;9.07;4.07;;;;;;;18.23;62.57;101050.44;4144711;28;20411;-64
2022/05/18 03:01:28;;;;;;;8.05;3.63;;;;;;;18.22;62.40;101052.16;4145629;28;20046;-64
2022/05/18 03:03:31;;;;;;;8.52;4.05;;;;;;;18.25;61.96;101059.16;4153976;28;20041;-64
2022/05/18 03:05:34;;;;;;;6.47;3.65;;;;;;;18.22;62.08;101061.81;4148062;28;20037;-64
2022/05/18 03:07:38;;;;;;;7.38;4.20;;;;;;;18.24;61.75;101060.94;4149161;28;20509;-64
2022/05/18 03:09:41;;;;;;;5.63;3.92;;;;;;;18.23;61.85;101058.31;4139151;28;20042;-64
2022/05/18 03:11:44;;;;;;;7.20;4.45;;;;;;;18.19;62.17;101060.09;4144995;28;20042;-65
2022/05/18 03:13:47;;;;;;;6.57;3.60;;;;;;;18.20;61.59;101060.97;4146720;28;20037;-65
2022/05/18 03:15:50;;;;;;;8.20;4.00;;;;;;;18.24;61.81;101073.22;4148945;28;20038;-65
2022/05/18 03:17:53;;;;;;;12.50;4.20;;;;;;;18.27;61.70;101074.06;4149432;28;20160;-64
2022/05/18 03:19:56;;;;;;;8.23;4.50;;;;;;;18.30;61.71;101074.03;4159142;28;20045;-64
2022/05/18 03:24:19;;;;;;;9.38;4.28;;;;;;;18.31;61.55;101085.44;4147360;28;20396;-65
2022/05/18 03:26:24;;;;;;;7.82;3.97;;;;;;;18.30;61.35;101088.97;4159316;28;20470;-65
2022/05/18 03:28:26;;;;;;;;;;;;;;;18.11;61.48;101099.63;4137812;28;20416;-65
2022/05/18 03:30:29;;;;;;;6.88;4.00;;;;;;;18.20;61.76;101100.47;4145839;28;19927;-65
2022/05/18 03:32:33;;;;;;;6.90;3.85;;;;;;;18.28;61.44;101103.88;4143835;28;20507;-64
2022/05/18 03:34:36;;;;;;;6.28;3.83;;;;;;;18.29;61.21;101103.00;4147162;28;20099;-65
2022/05/18 03:36:39;;;;;;;6.03;3.88;;;;;;;18.27;61.75;101099.53;4146765;28;20073;-65
2022/05/18 03:38:43;;;;;;;18.42;4.10;;;;;;;18.18;62.39;101107.47;4147995;28;20040;-65
2022/05/18 03:40:47;;;;;;;6.45;3.75;;;;;;;18.10;62.78;101100.50;4139468;28;20132;-64
2022/05/18 03:42:50;;;;;;;8.32;4.22;;;;;;;18.08;62.27;101099.66;4151712;28;20435;-65
2022/05/18 03:44:53;;;;;;;8.68;3.40;;;;;;;18.11;62.12;101110.16;4135261;28;20442;-65
2022/05/18 03:46:56;;;;;;;5.90;3.72;;;;;;;18.11;62.19;101110.16;4142753;28;20514;-64
2022/05/18 03:48:59;;;;;;;6.95;3.97;;;;;;;18.14;62.32;101114.53;4146988;28;20029;-65
2022/05/18 03:51:04;;;;;;;9.10;3.53;;;;;;;18.10;62.48;101108.38;4149744;28;20165;-64
2022/05/18 03:53:08;;;;;;;10.05;4.13;;;;;;;18.11;62.24;101112.78;4155204;28;20042;-65
2022/05/18 03:55:11;;;;;;;8.30;3.77;;;;;;;18.06;62.43;101119.84;4164134;28;20054;-65
2022/05/18 03:57:16;;;;;;;7.85;5.20;;;;;;;18.07;62.16;101113.69;4149136;28;20040;-64
2022/05/18 03:59:19;;;;;;;9.07;5.00;;;;;;;18.07;62.21;101118.06;4146610;28;20053;-64
2022/05/18 04:01:22;;;;;;;8.02;3.97;;;;;;;18.09;62.29;101124.19;4139072;28;20038;-64
2022/05/18 04:03:27;;;;;;;8.80;4.13;;;;;;;18.10;62.28;101121.53;4164859;28;20043;-64
2022/05/18 04:05:30;;;;;;;;;;;;;;;17.94;62.32;101127.78;4152372;28;20076;-64
2022/05/18 04:07:33;;;;;;;7.50;4.35;;;;;;;18.02;62.35;101119.84;4144060;28;20032;-64
2022/05/18 04:09:36;;;;;;;6.03;3.67;;;;;;;18.06;62.06;101125.09;4135340;28;20046;-65
2022/05/18 04:11:39;;;;;;;7.47;4.03;;;;;;;18.10;61.92;101124.19;4148359;28;20042;-64
2022/05/18 04:13:43;;;;;;;6.68;3.58;;;;;;;18.12;62.41;101117.16;4147523;28;20522;-64
2022/05/18 04:15:46;;;;;;;6.68;3.72;;;;;;;18.07;62.75;101124.19;4159075;28;20056;-64
2022/05/18 04:17:49;;;;;;;8.18;4.00;;;;;;;18.09;62.64;101126.81;4149828;28;20046;-64
2022/05/18 04:19:52;;;;;;;5.70;3.85;;;;;;;18.12;62.73;101127.69;4154828;28;20042;-64
2022/05/18 04:21:55;;;;;;;10.82;4.22;;;;;;;18.13;62.53;101131.19;4137419;28;20504;-65
2022/05/18 04:23:58;;;;;;;7.25;4.32;;;;;;;18.10;62.47;101133.84;4163156;28;20040;-64
2022/05/18 04:26:01;;;;;;;9.10;4.30;;;;;;;18.10;62.55;101139.97;4145020;28;20038;-65
2022/05/18 04:28:05;;;;;;;11.05;4.93;;;;;;;18.16;62.27;101133.78;4140049;28;20084;-65
2022/05/18 04:30:11;;;;;;;9.98;3.63;;;;;;;18.22;62.67;101140.78;4146870;28;20111;-65
2022/05/18 04:32:13;;;;;;;7.68;4.10;;;;;;;18.23;62.63;101132.88;4147937;28;20189;-65
2022/05/18 04:34:16;;;;;;;11.23;6.07;;;;;;;18.32;62.12;101137.19;4152834;28;20052;-65
2022/05/18 04:36:19;;;;;;;8.43;4.72;;;;;;;18.28;62.34;101136.38;4150679;28;20133;-65
2022/05/18 04:38:23;;;;;;;8.07;5.10;;;;;;;18.29;62.15;101146.00;4140922;28;20121;-65
2022/05/18 04:40:30;;;;;;;7.70;4.10;;;;;;;18.33;62.32;101143.38;4154368;28;20056;-65
2022/05/18 04:42:33;;;;;;;8.88;4.18;;;;;;;18.38;62.61;101144.19;4149046;28;20038;-64
2022/05/18 04:44:37;;;;;;;7.68;4.32;;;;;;;18.41;62.46;101142.41;4149585;28;20491;-64
2022/05/18 04:46:41;;;;;;;6.90;4.53;;;;;;;18.45;62.84;101143.25;4145038;28;20122;-65
2022/05/18 04:48:44;;;;;;;10.68;5.18;;;;;;;18.52;62.33;101149.38;4144563;28;20046;-65
2022/05/18 04:50:48;;;;;;;11.85;6.80;;;;;;;18.59;62.39;101146.66;4148833;28;20076;-65
2022/05/18 04:52:51;;;;;;;12.50;5.28;;;;;;;18.60;62.47;101147.53;4149069;28;20046;-65
2022/05/18 04:54:54;;;;;;;11.63;5.57;;;;;;;18.69;62.37;101147.47;4145351;28;20046;-65
2022/05/18 04:56:57;;;;;;;9.13;4.57;;;;;;;18.70;62.46;101157.09;4145304;28;20041;-65
2022/05/18 04:58:59;;;;;;;8.93;4.03;;;;;;;18.65;62.66;101151.00;4148141;28;20034;-65
2022/05/18 05:01:05;;;;;;;12.77;4.75;;;;;;;18.67;62.35;101151.84;4148788;28;20053;-64
2022/05/18 05:03:09;;;;;;;10.48;5.07;;;;;;;18.71;62.44;101144.81;4150245;28;20037;-64
2022/05/18 05:05:14;;;;;;;10.35;4.30;;;;;;;18.75;62.85;101150.03;4149014;28;20044;-65
2022/05/18 05:07:17;;;;;;;10.55;6.82;;;;;;;18.87;62.21;101154.38;4148441;28;20488;-65
2022/05/18 05:09:22;;;;;;;12.98;6.75;;;;;;;18.98;61.31;101146.34;4146774;28;20052;-65
2022/05/18 05:11:25;;;;;;;14.05;7.22;;;;;;;19.07;61.54;101151.53;4143532;28;20084;-65
2022/05/18 05:13:28;;;;;;;11.98;6.72;;;;;;;19.11;60.86;101163.78;4147518;28;20403;-65
2022/05/18 05:15:30;;;;;;;9.20;5.40;;;;;;;19.15;61.21;101160.22;4150045;28;20042;-65
2022/05/18 05:17:33;;;;;;;13.43;6.22;;;;;;;19.21;61.01;101164.56;4155700;28;20534;-65
2022/05/18 05:19:38;;;;;;;9.43;6.13;;;;;;;19.25;60.99;101168.06;4142861;28;20061;-65
2022/05/18 05:21:42;;;;;;;10.88;5.93;;;;;;;19.33;60.31;101163.56;4148223;28;20033;-65
2022/05/18 05:23:46;;;;;;;10.90;4.82;;;;;;;19.34;60.99;101165.31;4149634;28;20041;-65
2022/05/18 05:25:49;;;;;;;11.98;6.40;;;;;;;19.39;60.96;101168.78;4146907;28;20038;-61
2022/05/18 05:27:52;;;;;;;11.23;5.78;;;;;;;19.40;60.82;101169.66;4149250;28;20049;-62
2022/05/18 05:29:55;;;;;;;10.02;5.40;;;;;;;19.42;61.17;101168.75;4149078;28;20380;-62
2022/05/18 05:31:58;;;;;;;20.17;6.22;;;;;;;19.51;61.13;101168.63;4148709;28;20317;-61
2022/05/18 05:34:01;;;;;;;11.70;5.60;;;;;;;19.58;60.32;101176.47;4149722;28;20038;-61
2022/05/18 05:36:06;;;;;;;11.02;6.00;;;;;;;19.63;60.61;101178.16;4149634;28;20518;-63
2022/05/18 05:38:10;;;;;;;12.35;7.22;;;;;;;19.71;60.01;101173.69;4148904;28;20141;-65
2022/05/18 05:40:15;;;;;;;16.23;7.40;;;;;;;19.79;59.62;101173.63;4147726;28;20042;-65
2022/05/18 05:42:18;;;;;;;9.07;4.63;;;;;;;19.83;59.35;101183.25;4146472;28;20045;-66
2022/05/18 05:44:21;;;;;;;11.57;5.47;;;;;;;19.88;60.24;101184.03;4144688;28;20041;-61
2022/05/18 05:46:27;;;;;;;12.82;6.40;;;;;;;20.00;59.08;101175.09;4157366;28;20487;-61
2022/05/18 05:48:31;;;;;;;9.90;5.13;;;;;;;20.02;58.62;101175.97;4149712;28;20041;-61
2022/05/18 05:50:34;;;;;;;13.20;5.63;;;;;;;20.00;59.79;101176.88;4148040;28;21328;-61
2022/05/18 05:52:38;;;;;;;10.55;4.90;;;;;;;20.04;60.10;101190.00;4141444;28;20344;-60
2022/05/18 05:54:41;;;;;;;10.75;5.97;;;;;;;20.10;59.81;101188.19;4147091;28;20561;-65
2022/05/18 05:56:44;;;;;;;13.40;6.50;;;;;;;20.24;58.86;101188.88;4144299;28;20064;-64
2022/05/18 05:58:47;;;;;;;11.57;5.80;;;;;;;20.24;58.19;101180.94;4145145;28;20427;-64
2022/05/18 06:00:50;;;;;;;8.45;5.20;;;;;;;20.29;57.68;101175.59;4136835;28;20085;-65
2022/05/18 06:02:53;;;;;;;10.43;5.53;;;;;;;20.36;57.34;101183.41;4143734;28;20044;-64
2022/05/18 06:04:56;;;;;;;11.75;6.07;;;;;;;20.52;56.90;101178.75;4147113;28;20519;-64
2022/05/18 06:06:59;;;;;;;8.00;5.80;;;;;;;20.53;56.70;101177.88;4140982;28;20038;-64
2022/05/18 06:09:06;;;;;;;7.50;4.22;;;;;;;20.54;55.94;101174.31;4145913;28;20116;-65
2022/05/18 06:11:10;;;;;;;6.85;4.75;;;;;;;20.60;56.16;101167.19;4149008;28;20064;-64
2022/05/18 06:13:13;;;;;;;;;;;;;;;20.67;55.84;101168.88;4148579;28;20092;-64
2022/05/18 06:15:16;;;;;;;9.98;4.47;;;;;;;20.73;55.29;101168.75;4149339;28;19928;-64
2022/05/18 06:17:20;;;;;;;9.10;4.50;;;;;;;20.74;55.04;101163.44;4148123;28;20044;-64
2022/05/18 06:19:23;;;;;;;12.68;5.18;;;;;;;20.75;55.43;101169.63;4130895;28;20453;-64
2022/05/18 06:21:26;;;;;;;8.35;4.55;;;;;;;20.84;55.10;101166.81;4140681;28;20400;-64
2022/05/18 06:23:29;;;;;;;10.73;4.68;;;;;;;20.92;54.50;101166.69;4149057;28;20539;-64
2022/05/18 06:25:33;;;;;;;11.68;4.80;;;;;;;20.96;54.75;101175.44;4131815;28;20038;-65
2022/05/18 06:27:36;;;;;;;8.77;4.78;;;;;;;21.06;54.69;101169.09;4146608;28;20045;-64
2022/05/18 06:29:39;;;;;;;8.60;4.47;;;;;;;21.18;53.76;101171.50;4139584;28;20439;-64
2022/05/18 06:31:41;;;;;;;8.07;4.15;;;;;;;21.27;53.30;101168.69;4143801;28;20074;-64
2022/05/18 06:33:44;;;;;;;10.13;4.28;;;;;;;21.31;53.59;101172.16;4148972;28;20038;-65
2022/05/18 06:35:51;;;;;;;11.00;4.03;;;;;;;21.36;53.67;101165.00;4144119;28;20049;-65
2022/05/18 06:37:53;;;;;;;8.77;4.05;;;;;;;21.35;53.25;101167.66;4140728;28;20117;-65
2022/05/18 06:39:56;;;;;;;9.15;4.05;;;;;;;21.43;52.93;101166.59;4132272;28;20042;-65
2022/05/18 06:42:00;;;;;;;9.70;4.80;;;;;;;21.57;51.67;101169.03;4132804;28;20459;-65
2022/05/18 06:44:05;;;;;;;6.93;4.15;;;;;;;21.62;52.08;101166.28;4135172;28;20038;-65
2022/05/18 06:46:09;;;;;;;8.10;4.07;;;;;;;21.63;52.53;101168.03;4140603;28;20042;-65
2022/05/18 06:48:12;;;;;;;8.85;4.75;;;;;;;21.72;52.66;101166.97;4132702;28;20039;-65
2022/05/18 06:50:35;;;;;;;7.90;4.18;;;;;;;21.78;52.33;101169.47;4131015;28;20045;-65
2022/05/18 06:52:38;;;;;;;6.18;3.40;;;;;;;21.80;52.74;101178.28;4135258;28;20121;-65
2022/05/18 06:54:41;;;;;;;9.07;4.18;;;;;;;21.94;51.92;101173.53;4140333;28;20048;-65
2022/05/18 06:56:55;;;;;;;9.00;4.30;;;;;;;21.85;51.77;101179.03;4132452;28;20070;-65
2022/05/18 06:58:59;;;;;;;10.43;4.53;;;;;;;22.00;51.44;101171.69;4131399;28;20527;-65
2022/05/18 07:01:04;;;;;;;;;;;;;;;21.88;51.79;101178.97;4132337;28;20081;-65
2022/05/18 07:03:07;;;;;;;11.40;4.22;;;;;;;22.01;52.01;101179.59;4140362;28;19925;-65
2022/05/18 07:05:10;;;;;;;5.90;3.40;;;;;;;22.06;51.51;101179.47;4132276;28;20062;-65
2022/05/18 07:07:13;;;;;;;9.80;4.53;;;;;;;22.13;51.14;101173.13;4132175;28;20512;-65
2022/05/18 07:09:19;;;;;;;9.43;3.72;;;;;;;22.22;51.47;101177.34;4138190;28;20038;-65
2022/05/18 07:11:22;;;;;;;7.68;3.53;;;;;;;22.35;50.76;101175.34;4139887;28;20038;-65
2022/05/18 07:13:25;;;;;;;7.20;3.25;;;;;;;22.29;49.67;101179.81;4131061;28;20129;-65
2022/05/18 07:15:29;;;;;;;8.02;4.22;;;;;;;22.37;50.38;101176.16;4131074;28;20078;-65
2022/05/18 07:17:32;;;;;;;6.82;3.67;;;;;;;22.41;49.62;101178.69;4135397;28;20509;-65
2022/05/18 07:19:55;;;;;;;6.80;3.22;;;;;;;22.48;49.62;101179.44;4139760;28;20042;-65
2022/05/18 07:21:59;;;;;;;6.93;3.38;;;;;;;22.49;49.44;101179.41;4132058;28;20141;-65
2022/05/18 07:24:01;;;;;;;8.13;3.47;;;;;;;22.50;50.34;101180.25;4133121;28;20042;-65
2022/05/18 07:26:05;;;;;;;6.82;2.83;;;;;;;22.59;50.61;101185.34;4142887;28;20041;-65
2022/05/18 07:28:07;;;;;;;8.02;3.53;;;;;;;22.63;49.18;101180.84;4147277;28;20038;-65
2022/05/18 07:30:26;;;;;;;11.98;3.72;;;;;;;23.04;47.97;101181.56;4131611;28;20125;-65
2022/05/18 07:32:31;;;;;;;6.32;3.47;;;;;;;22.96;47.62;101181.75;4131832;28;20447;-65
2022/05/18 07:34:34;;;;;;;8.43;3.80;;;;;;;22.99;48.28;101187.00;4130818;28;20512;-65
2022/05/18 07:36:37;;;;;;;10.63;3.55;;;;;;;23.13;47.07;101184.03;4146818;28;20491;-65
2022/05/18 07:38:41;;;;;;;7.85;3.10;;;;;;;23.06;48.36;101182.41;4131663;28;20042;-65
2022/05/18 07:40:44;;;;;;;4.85;2.88;;;;;;;23.04;46.50;101192.16;4134772;28;20491;-65
2022/05/18 07:42:47;;;;;;;4.70;2.83;;;;;;;23.15;46.99;101184.84;4138776;28;20042;-65
2022/05/18 07:44:51;;;;;;;9.02;3.25;;;;;;;23.18;46.60;101186.53;4135225;28;20042;-65
2022/05/18 07:46:55;;;;;;;7.38;2.92;;;;;;;23.51;45.62;101181.25;4131669;28;20563;-64
2022/05/18 07:49:02;;;;;;;9.75;3.65;;;;;;;23.48;46.08;101182.19;4130236;28;20053;-65
2022/05/18 07:51:05;;;;;;;;;;;;;;;23.57;46.28;101178.41;4131746;28;20046;-65
2022/05/18 07:53:09;;;;;;;4.38;2.40;;;;;;;23.55;46.99;101188.19;4130406;28;20016;-65
2022/05/18 07:55:12;;;;;;;5.82;2.67;;;;;;;23.78;46.06;101189.31;4137072;28;20393;-64
2022/05/18 07:57:16;;;;;;;5.15;2.70;;;;;;;23.64;45.81;101190.59;4138272;28;20531;-65
2022/05/18 07:59:19;;;;;;;7.25;2.88;;;;;;;23.65;45.10;101196.75;4130337;28;20046;-65
2022/05/18 08:01:22;;;;;;;3.70;2.15;;;;;;;23.57;45.38;101196.97;4146178;28;20048;-65
2022/05/18 08:03:26;;;;;;;;;;;;;;;23.52;45.95;101193.56;4134092;28;20034;-65
2022/05/18 08:05:33;;;;;;;4.13;2.15;;;;;;;23.67;46.49;101194.91;4139635;28;20379;-65
2022/05/18 08:07:36;;;;;;;5.15;2.38;;;;;;;23.67;46.11;101189.59;4147937;28;20506;-65
2022/05/18 08:16:50;;;;;;;3.85;2.30;;;;;;;24.13;44.48;101188.28;4081570;29;20056;-65
2022/05/18 08:18:57;;;;;;;5.60;2.30;;;;;;;24.22;44.26;101188.00;4110512;28;20062;-65
2022/05/18 08:21:01;;;;;;;4.90;2.83;;;;;;;24.33;44.32;101189.47;4139010;28;20413;-65
2022/05/18 08:23:05;;;;;;;6.13;2.75;;;;;;;24.38;43.20;101188.38;4131485;28;20039;-65
2022/05/18 08:25:10;;;;;;;6.87;2.70;;;;;;;24.32;44.16;101193.88;4130270;28;20136;-65
2022/05/18 08:27:16;;;;;;;15.90;3.20;;;;;;;24.21;44.26;101196.91;4136912;28;20064;-67
2022/05/18 08:29:19;;;;;;;3.38;2.28;;;;;;;24.15;44.76;101190.88;4139295;28;20038;-66
2022/05/18 08:31:24;;;;;;;2.63;1.70;;;;;;;24.14;44.22;101186.50;4130987;28;20048;-65
2022/05/18 08:33:28;;;;;;;7.10;3.28;;;;;;;24.21;44.00;101182.72;4131190;28;20072;-65
2022/05/18 08:35:31;;;;;;;3.05;2.38;;;;;;;24.25;44.67;101187.03;4135014;28;20240;-65
2022/05/18 08:37:40;;;;;;;5.65;3.33;;;;;;;24.43;43.29;101192.69;4139198;28;20522;-65
2022/05/18 08:39:43;;;;;;;5.15;2.70;;;;;;;24.31;44.10;101186.84;4131154;28;20068;-65
2022/05/18 08:41:49;;;;;;;4.80;3.05;;;;;;;24.31;44.55;101186.84;4129840;28;20044;-66
2022/05/18 08:43:55;;;;;;;7.97;3.10;;;;;;;24.41;43.89;101184.75;4130398;28;20061;-65
2022/05/18 08:46:10;;;;;;;5.57;3.47;;;;;;;24.34;44.02;101180.56;4138272;28;20030;-65
2022/05/18 08:48:24;;;;;;;7.68;3.05;;;;;;;24.49;43.52;101187.19;4131976;28;20038;-65
2022/05/18 08:50:27;;;;;;;8.18;3.03;;;;;;;24.80;42.56;101183.53;4129532;28;20129;-65
2022/05/18 08:52:57;;;;;;;5.38;2.85;;;;;;;24.67;44.09;101175.97;4132556;28;20518;-65
2022/05/18 08:55:16;;;;;;;8.05;2.92;;;;;;;24.62;44.86;101175.25;4139000;28;20480;-65
2022/05/18 08:57:21;;;;;;;5.32;3.10;;;;;;;24.63;43.89;101182.28;4131292;28;20072;-65
2022/05/18 08:59:30;;;;;;;5.05;2.58;;;;;;;24.64;43.75;101178.72;4129595;28;20086;-65
2022/05/18 09:01:40;;;;;;;6.63;3.00;;;;;;;24.71;43.63;101180.25;4130782;28;20045;-65
2022/05/18 09:03:47;;;;;;;4.57;2.40;;;;;;;24.81;43.03;101179.94;4131295;28;20501;-65
2022/05/18 09:05:57;;;;;;;5.90;2.63;;;;;;;24.96;42.98;101182.09;4113661;28;20332;-65
2022/05/18 09:08:07;;;;;;;6.68;2.92;;;;;;;25.03;43.53;101183.63;4133797;28;20112;-65
2022/05/18 09:10:23;;;;;;;7.68;2.80;;;;;;;25.08;43.44;101184.31;4137275;28;20070;-65
2022/05/18 09:12:26;;;;;;;5.20;2.58;;;;;;;25.04;42.87;101180.06;4131061;28;20062;-65
2022/05/18 09:14:37;;;;;;;5.15;2.90;;;;;;;25.23;43.15;101185.59;4130908;28;20591;-65
2022/05/18 09:16:44;;;;;;;4.93;2.83;;;;;;;25.34;43.61;101185.22;4141731;28;20077;-65
2022/05/18 09:18:56;;;;;;;5.93;3.00;;;;;;;25.50;42.62;101185.53;4145886;28;20042;-65
2022/05/18 09:21:20;;;;;;;7.38;2.70;;;;;;;25.58;42.55;101179.94;4164767;28;20038;-66
2022/05/18 09:23:54;;;;;;;9.52;2.60;;;;;;;25.71;42.88;101183.88;4145085;28;20091;-65
2022/05/18 09:26:17;;;;;;;7.55;3.30;;;;;;;25.99;41.03;101176.63;4142677;28;20050;-65
2022/05/18 09:28:35;;;;;;;10.10;3.05;;;;;;;25.85;43.43;101177.16;4146494;28;20435;-65
2022/05/18 09:30:53;;;;;;;7.05;3.03;;;;;;;25.97;40.60;101179.34;4144494;28;20043;-65
2022/05/18 09:33:27;;;;;;;4.55;3.05;;;;;;;25.81;41.04;101179.06;4140446;28;20072;-65
2022/05/18 09:35:42;;;;;;;3.92;2.70;;;;;;;25.87;41.57;101177.97;4133641;28;20042;-65
2022/05/18 09:37:49;;;;;;;4.15;2.42;;;;;;;25.89;41.21;101187.66;4148411;28;20038;-65
2022/05/18 09:39:59;;;;;;;4.78;3.03;;;;;;;25.95;41.13;101174.06;4133619;28;20042;-65
2022/05/18 09:42:06;;;;;;;8.00;3.33;;;;;;;26.10;40.53;101177.97;4141481;28;20046;-65
2022/05/18 09:44:18;;;;;;;9.68;3.22;;;;;;;26.39;39.25;101181.28;4147314;28;20491;-64
2022/05/18 09:46:25;;;;;;;6.35;3.38;;;;;;;26.44;38.95;101184.59;4148456;28;20041;-65
2022/05/18 09:48:37;;;;;;;4.57;2.50;;;;;;;26.38;39.32;101173.34;4147284;28;20514;-65
2022/05/18 09:50:45;;;;;;;5.53;2.65;;;;;;;26.37;39.67;101171.59;4140944;28;20488;-65
2022/05/18 09:52:48;;;;;;;7.90;2.58;;;;;;;26.34;39.53;101172.56;4133306;28;20080;-65
2022/05/18 09:54:55;;;;;;;7.10;2.78;;;;;;;26.54;39.38;101168.25;4132180;28;20523;-65